createdAt,value
2023-03-25T00:04:05.214Z,99.20
2023-03-25T00:14:12.416Z,99.62
2023-03-25T00:24:18.342Z,99.99
2023-03-25T00:34:24.204Z,100.00
2023-03-25T00:44:29.951Z,100.00
2023-03-25T00:54:36.045Z,100.00
2023-03-25T01:04:42.791Z,100.00
2023-03-25T01:14:49.156Z,100.00
2023-03-25T01:24:55.556Z,100.00
2023-03-25T01:35:01.304Z,100.00
2023-03-25T01:45:22.231Z,100.00
2023-03-25T01:55:28.580Z,100.00
2023-03-25T02:05:43.208Z,100.00
2023-03-25T02:16:02.244Z,100.00
2023-03-25T02:26:32.652Z,100.00
2023-03-25T02:36:57.657Z,100.00
2023-03-25T02:47:06.475Z,100.00
2023-03-25T02:57:16.205Z,100.00
2023-03-25T03:07:27.488Z,100.00
2023-03-25T03:17:44.137Z,100.00
2023-03-25T03:27:57.214Z,100.00
2023-03-25T03:38:09.624Z,100.00
2023-03-25T03:48:18.698Z,100.00
2023-03-25T03:58:30.372Z,100.00
2023-03-25T04:08:47.087Z,100.00
2023-03-25T04:18:53.619Z,100.00
2023-03-25T04:29:00.678Z,100.00
2023-03-25T04:39:07.394Z,100.00
2023-03-25T04:49:21.388Z,100.00
2023-03-25T04:59:28.384Z,100.00
2023-03-25T05:09:33.972Z,100.00
2023-03-25T05:19:43.766Z,100.00
2023-03-25T05:29:49.880Z,100.00
2023-03-25T05:39:56.600Z,100.00
2023-03-25T05:50:02.288Z,100.00
2023-03-25T06:00:12.912Z,100.00
2023-03-25T06:10:20.070Z,100.00
2023-03-25T06:20:25.746Z,94.82
2023-03-25T06:30:31.664Z,82.26
2023-03-25T06:40:38.090Z,74.58
2023-03-25T06:50:45.562Z,68.01
2023-03-25T07:00:54.786Z,67.57
2023-03-25T07:11:05.451Z,67.28
2023-03-25T07:21:11.329Z,67.88
2023-03-25T07:31:18.187Z,71.09
2023-03-25T07:41:23.872Z,69.31
2023-03-25T07:51:30.297Z,66.98
2023-03-25T08:01:36.000Z,59.65
2023-03-25T08:11:40.595Z,49.42
2023-03-25T08:21:46.231Z,44.80
2023-03-25T08:31:52.574Z,42.98
2023-03-25T08:41:59.215Z,40.99
2023-03-25T08:52:08.567Z,42.07
2023-03-25T09:02:15.131Z,45.23
2023-03-25T09:12:20.853Z,47.30
2023-03-25T09:22:27.001Z,47.90
2023-03-25T09:32:33.052Z,47.34
2023-03-25T09:42:46.497Z,49.28
2023-03-25T09:52:58.976Z,51.34
2023-03-25T10:03:14.071Z,54.77
2023-03-25T10:13:28.613Z,56.34
2023-03-25T10:23:39.531Z,55.58
2023-03-25T10:33:51.684Z,54.37
2023-03-25T10:43:57.443Z,54.01
2023-03-25T10:54:03.528Z,57.28
2023-03-25T11:04:13.151Z,61.35
2023-03-25T11:14:23.073Z,65.09
2023-03-25T11:24:35.332Z,66.42
2023-03-25T11:34:42.883Z,65.90
2023-03-25T11:44:52.859Z,66.25
2023-03-25T11:54:59.412Z,65.01
2023-03-25T12:05:12.827Z,63.92
2023-03-25T12:15:34.143Z,64.01
2023-03-25T12:25:55.417Z,62.98
2023-03-25T12:36:18.246Z,62.70
2023-03-25T12:46:40.537Z,62.97
2023-03-25T12:56:55.545Z,63.08
2023-03-25T13:07:05.462Z,62.35
2023-03-25T13:17:22.822Z,62.98
2023-03-25T13:27:34.254Z,66.32
2023-03-25T13:37:44.322Z,69.42
2023-03-25T13:47:54.661Z,70.61
2023-03-25T13:58:35.056Z,70.34
2023-03-25T14:09:09.494Z,69.82
2023-03-25T14:19:21.174Z,70.27
2023-03-25T14:29:37.521Z,70.90
2023-03-25T14:39:44.869Z,70.97
2023-03-25T14:49:54.669Z,70.10
2023-03-25T15:00:10.005Z,69.59
2023-03-25T15:10:31.201Z,69.17
2023-03-25T15:20:37.604Z,69.04
2023-03-25T15:31:14.029Z,69.17
2023-03-25T15:41:34.275Z,69.82
2023-03-25T15:52:06.219Z,70.30
2023-03-25T16:02:26.653Z,69.75
2023-03-25T16:12:32.456Z,68.76
2023-03-25T16:22:38.671Z,69.46
2023-03-25T16:32:44.526Z,69.04
2023-03-25T16:42:50.828Z,68.34
2023-03-25T16:53:02.568Z,69.18
2023-03-25T17:03:15.280Z,70.33
2023-03-25T17:13:25.990Z,70.87
2023-03-25T17:23:44.458Z,70.64
2023-03-25T17:33:55.483Z,69.91
2023-03-25T17:44:01.746Z,70.40
2023-03-25T17:54:07.807Z,70.69
2023-03-25T18:04:15.389Z,71.56
2023-03-25T18:14:22.300Z,72.43
2023-03-25T18:24:28.187Z,73.30
2023-03-25T18:34:34.622Z,74.39
2023-03-25T18:44:42.153Z,75.26
2023-03-25T18:54:47.904Z,76.28
2023-03-25T19:05:00.772Z,76.59
2023-03-25T19:15:09.060Z,77.30
2023-03-25T19:25:15.605Z,77.79
2023-03-25T19:35:23.822Z,77.86
2023-03-25T19:45:34.078Z,78.23
2023-03-25T19:55:42.895Z,78.83
2023-03-25T20:05:49.055Z,79.46
2023-03-25T20:15:55.474Z,79.89
2023-03-25T20:26:01.503Z,79.90
2023-03-25T20:36:08.909Z,80.32
2023-03-25T20:46:15.540Z,80.52
2023-03-25T20:56:21.774Z,80.44
2023-03-25T21:06:28.581Z,80.81
2023-03-25T21:16:35.421Z,81.27
2023-03-25T21:26:41.330Z,82.18
2023-03-25T21:36:47.090Z,83.00
2023-03-25T21:46:54.391Z,83.39
2023-03-25T21:57:04.589Z,83.61
2023-03-25T22:07:11.141Z,83.48
2023-03-25T22:17:16.888Z,83.03
2023-03-25T22:27:22.663Z,83.11
2023-03-25T22:37:28.458Z,83.52
2023-03-25T22:47:34.505Z,83.79
2023-03-25T22:57:40.874Z,84.37
2023-03-25T23:07:46.574Z,85.01
2023-03-25T23:17:52.546Z,85.35
2023-03-25T23:27:59.073Z,85.73
2023-03-25T23:38:05.000Z,85.98
2023-03-25T23:48:12.650Z,85.90
2023-03-25T23:58:18.898Z,85.32
